createdAt,value
2022-11-25T00:01:14.738Z,4.40
2022-11-25T00:03:42.360Z,4.30
2022-11-25T00:06:09.531Z,4.30
2022-11-25T00:08:36.601Z,4.40
2022-11-25T00:11:03.941Z,4.40
2022-11-25T00:13:30.717Z,4.40
2022-11-25T00:16:00.581Z,4.40
2022-11-25T00:18:27.318Z,4.40
2022-11-25T00:20:53.956Z,4.30
2022-11-25T00:23:20.700Z,4.30
2022-11-25T00:25:47.426Z,4.30
2022-11-25T00:28:14.064Z,4.30
2022-11-25T00:30:40.764Z,4.30
2022-11-25T00:33:07.449Z,4.20
2022-11-25T00:35:37.180Z,4.20
2022-11-25T00:38:03.904Z,4.20
2022-11-25T00:40:31.870Z,4.10
2022-11-25T00:43:17.285Z,4.10
2022-11-25T00:45:43.995Z,4.10
2022-11-25T00:48:10.705Z,4.10
2022-11-25T00:50:37.392Z,4.10
2022-11-25T00:53:04.136Z,4.10
2022-11-25T00:55:50.776Z,4.00
2022-11-25T00:58:17.539Z,4.00
2022-11-25T01:00:44.275Z,4.00
2022-11-25T01:03:11.093Z,3.90
2022-11-25T01:05:37.865Z,3.90
2022-11-25T01:08:04.866Z,3.80
2022-11-25T01:10:31.594Z,3.80
2022-11-25T01:12:59.503Z,3.80
2022-11-25T01:15:26.144Z,3.80
2022-11-25T01:17:53.271Z,3.70
2022-11-25T01:20:19.912Z,3.70
2022-11-25T01:22:46.545Z,3.70
2022-11-25T01:25:13.373Z,3.70
2022-11-25T01:27:43.015Z,3.70
2022-11-25T01:30:09.937Z,3.70
2022-11-25T01:32:36.709Z,3.70
2022-11-25T01:35:03.509Z,3.70
2022-11-25T01:37:31.028Z,3.70
2022-11-25T01:39:57.701Z,3.70
2022-11-25T01:42:27.649Z,3.60
2022-11-25T01:45:13.223Z,3.60
2022-11-25T01:47:40.021Z,3.50
2022-11-25T01:50:09.975Z,3.50
2022-11-25T01:52:39.156Z,3.50
2022-11-25T01:55:11.208Z,3.40
2022-11-25T01:57:41.629Z,3.40
2022-11-25T02:00:09.056Z,3.40
2022-11-25T02:02:46.447Z,3.40
2022-11-25T02:05:15.108Z,3.30
2022-11-25T02:07:43.479Z,3.30
2022-11-25T02:10:14.341Z,3.30
2022-11-25T02:12:44.515Z,3.20
2022-11-25T02:15:11.549Z,3.20
2022-11-25T02:17:38.552Z,3.20
2022-11-25T02:20:10.236Z,3.20
2022-11-25T02:22:55.689Z,3.20
2022-11-25T02:25:24.142Z,3.20
2022-11-25T02:27:52.708Z,3.30
2022-11-25T02:30:19.507Z,3.30
2022-11-25T02:32:47.230Z,3.30
2022-11-25T02:35:33.127Z,3.30
2022-11-25T02:38:01.245Z,3.20
2022-11-25T02:40:28.888Z,3.10
2022-11-25T02:42:58.192Z,3.10
2022-11-25T02:45:48.931Z,3.00
2022-11-25T02:48:15.752Z,3.00
2022-11-25T02:50:42.646Z,3.00
2022-11-25T02:53:09.411Z,3.00
2022-11-25T02:55:36.416Z,3.10
2022-11-25T02:58:03.171Z,3.00
2022-11-25T03:00:30.110Z,3.00
2022-11-25T03:02:56.861Z,2.90
2022-11-25T03:05:24.179Z,2.80
2022-11-25T03:07:51.051Z,2.70
2022-11-25T03:10:22.266Z,2.70
2022-11-25T03:12:49.212Z,2.60
2022-11-25T03:15:16.099Z,2.50
2022-11-25T03:17:43.012Z,2.50
2022-11-25T03:20:10.530Z,2.40
2022-11-25T03:22:37.241Z,2.30
2022-11-25T03:25:04.756Z,2.30
2022-11-25T03:27:31.478Z,2.30
2022-11-25T03:29:58.567Z,2.30
2022-11-25T03:32:27.089Z,2.40
2022-11-25T03:34:53.902Z,2.40
2022-11-25T03:37:20.916Z,2.40
2022-11-25T03:39:48.012Z,2.40
2022-11-25T03:42:14.810Z,2.50
2022-11-25T03:44:41.878Z,2.50
2022-11-25T03:47:08.958Z,2.50
2022-11-25T03:49:36.337Z,2.60
2022-11-25T03:52:03.189Z,2.60
2022-11-25T03:54:30.713Z,2.60
2022-11-25T03:57:18.508Z,2.60
2022-11-25T03:59:45.244Z,2.60
2022-11-25T04:02:12.242Z,2.60
2022-11-25T04:04:39.017Z,2.60
2022-11-25T04:07:06.011Z,2.60
2022-11-25T04:09:33.311Z,2.70
2022-11-25T04:12:19.559Z,2.70
2022-11-25T04:14:53.618Z,2.70
2022-11-25T04:17:20.381Z,2.80
2022-11-25T04:19:47.653Z,2.80
2022-11-25T04:22:14.359Z,2.80
2022-11-25T04:24:44.095Z,2.80
2022-11-25T04:27:13.576Z,2.80
2022-11-25T04:29:40.894Z,2.80
2022-11-25T04:32:08.961Z,2.80
2022-11-25T04:34:35.840Z,2.80
2022-11-25T04:37:02.883Z,2.80
2022-11-25T04:39:29.838Z,2.80
2022-11-25T04:42:19.141Z,2.80
2022-11-25T04:44:56.067Z,2.80
2022-11-25T04:47:33.164Z,2.70
2022-11-25T04:50:00.169Z,2.70
2022-11-25T04:52:27.037Z,2.70
2022-11-25T04:54:54.108Z,2.80
2022-11-25T04:57:20.990Z,2.80
2022-11-25T04:59:47.708Z,2.80
2022-11-25T05:02:15.146Z,2.70
2022-11-25T05:04:45.751Z,2.80
2022-11-25T05:07:14.681Z,2.80
2022-11-25T05:09:43.687Z,2.80
2022-11-25T05:12:20.335Z,2.80
2022-11-25T05:14:47.658Z,2.80
2022-11-25T05:17:16.504Z,2.80
2022-11-25T05:19:44.268Z,2.80
2022-11-25T05:22:15.744Z,2.80
2022-11-25T05:24:44.385Z,2.80
2022-11-25T05:27:12.189Z,2.90
2022-11-25T05:29:38.871Z,2.90
2022-11-25T05:32:07.304Z,2.80
2022-11-25T05:34:34.370Z,2.80
2022-11-25T05:37:01.935Z,2.80
2022-11-25T05:39:30.420Z,2.70
2022-11-25T05:42:15.255Z,2.70
2022-11-25T05:44:42.306Z,2.70
2022-11-25T05:47:09.111Z,2.70
2022-11-25T05:49:35.835Z,2.60
2022-11-25T05:52:02.708Z,2.60
2022-11-25T05:54:34.747Z,2.70
2022-11-25T05:57:01.862Z,2.60
2022-11-25T05:59:32.835Z,2.70
2022-11-25T06:02:11.858Z,2.70
2022-11-25T06:04:38.901Z,2.70
2022-11-25T06:07:06.073Z,2.70
2022-11-25T06:09:32.919Z,2.70
2022-11-25T06:12:00.246Z,2.70
2022-11-25T06:14:27.403Z,2.70
2022-11-25T06:16:54.821Z,2.70
2022-11-25T06:19:29.946Z,2.70
2022-11-25T06:21:56.841Z,2.70
2022-11-25T06:24:24.761Z,2.80
2022-11-25T06:26:56.976Z,2.80
2022-11-25T06:29:24.031Z,2.80
2022-11-25T06:31:52.123Z,2.90
2022-11-25T06:34:57.109Z,2.90
2022-11-25T06:37:46.328Z,2.90
2022-11-25T06:40:13.474Z,3.00
2022-11-25T06:42:40.257Z,3.00
2022-11-25T06:45:07.203Z,3.00
2022-11-25T06:47:33.885Z,3.00
2022-11-25T06:50:00.556Z,3.00
2022-11-25T06:52:27.253Z,3.00
2022-11-25T06:54:53.908Z,3.00
2022-11-25T06:57:20.555Z,3.00
2022-11-25T06:59:47.544Z,3.00
2022-11-25T07:02:14.262Z,3.10
2022-11-25T07:04:41.091Z,3.10
2022-11-25T07:07:07.993Z,3.20
2022-11-25T07:09:34.911Z,3.20
2022-11-25T07:12:01.616Z,3.30
2022-11-25T07:14:28.271Z,3.30
2022-11-25T07:16:54.952Z,3.30
2022-11-25T07:19:21.725Z,3.40
2022-11-25T07:21:48.424Z,3.40
2022-11-25T07:24:15.790Z,3.50
2022-11-25T07:26:43.366Z,3.50
2022-11-25T07:29:43.900Z,3.50
2022-11-25T07:31:58.331Z,3.50
2022-11-25T07:34:25.141Z,3.40
2022-11-25T07:36:51.816Z,3.40
2022-11-25T07:39:20.884Z,3.40
2022-11-25T07:41:51.344Z,3.40
2022-11-25T07:44:18.034Z,3.50
2022-11-25T07:46:50.870Z,3.60
2022-11-25T07:49:19.100Z,3.70
2022-11-25T07:51:49.872Z,3.80
2022-11-25T07:54:17.225Z,3.90
2022-11-25T07:56:44.826Z,4.10
2022-11-25T07:59:16.173Z,4.20
2022-11-25T08:01:43.062Z,4.40
2022-11-25T08:04:13.754Z,4.60
2022-11-25T08:06:44.156Z,5.00
2022-11-25T08:09:11.955Z,6.00
2022-11-25T08:11:39.007Z,7.00
2022-11-25T08:14:05.827Z,7.90
2022-11-25T08:16:32.674Z,8.40
2022-11-25T08:19:01.800Z,8.70
2022-11-25T08:21:29.830Z,8.70
2022-11-25T08:23:56.705Z,8.60
2022-11-25T08:26:27.752Z,8.50
2022-11-25T08:28:54.389Z,8.30
2022-11-25T08:31:22.189Z,8.10
2022-11-25T08:33:49.190Z,8.00
2022-11-25T08:36:16.692Z,8.10
2022-11-25T08:38:44.387Z,8.50
2022-11-25T08:41:12.806Z,8.90
2022-11-25T08:43:39.599Z,9.70
2022-11-25T08:46:10.956Z,10.50
2022-11-25T08:48:37.945Z,10.90
2022-11-25T08:51:07.708Z,10.90
2022-11-25T08:53:34.402Z,10.90
2022-11-25T08:56:01.043Z,11.00
2022-11-25T08:58:27.701Z,11.40
2022-11-25T09:00:54.382Z,11.50
2022-11-25T09:03:21.331Z,11.30
2022-11-25T09:05:48.711Z,11.00
2022-11-25T09:08:15.432Z,10.60
2022-11-25T09:10:42.433Z,10.10
2022-11-25T09:13:10.515Z,9.90
2022-11-25T09:15:37.680Z,9.90
2022-11-25T09:18:09.461Z,10.00
2022-11-25T09:20:37.808Z,10.10
2022-11-25T09:23:04.541Z,10.20
2022-11-25T09:25:31.559Z,10.20
2022-11-25T09:27:58.345Z,10.10
2022-11-25T09:30:25.254Z,9.80
2022-11-25T09:32:53.100Z,9.60
2022-11-25T09:35:20.285Z,9.40
2022-11-25T09:37:46.952Z,9.30
2022-11-25T09:40:32.622Z,9.30
2022-11-25T09:43:25.860Z,9.40
2022-11-25T09:46:21.840Z,9.70
2022-11-25T09:48:55.752Z,10.10
2022-11-25T09:51:27.143Z,10.30
2022-11-25T09:53:54.718Z,10.50
2022-11-25T09:56:26.717Z,10.50
2022-11-25T09:58:56.136Z,10.60
2022-11-25T10:01:24.989Z,10.90
2022-11-25T10:04:04.374Z,11.70
2022-11-25T10:06:32.982Z,12.80
2022-11-25T10:09:01.946Z,13.30
2022-11-25T10:11:34.198Z,13.10
2022-11-25T10:14:19.928Z,12.60
2022-11-25T10:16:51.981Z,12.20
2022-11-25T10:19:38.298Z,11.80
2022-11-25T10:22:14.470Z,11.50
2022-11-25T10:24:41.609Z,11.00
2022-11-25T10:27:14.923Z,10.60
2022-11-25T10:29:41.841Z,10.40
2022-11-25T10:32:11.385Z,10.10
2022-11-25T10:34:41.525Z,10.00
2022-11-25T10:37:12.868Z,10.00
2022-11-25T10:39:39.540Z,9.90
2022-11-25T10:42:09.558Z,9.80
2022-11-25T10:44:40.760Z,9.90
2022-11-25T10:47:26.431Z,9.90
2022-11-25T10:50:01.078Z,10.00
2022-11-25T10:52:29.196Z,10.00
2022-11-25T10:54:57.228Z,10.00
2022-11-25T10:57:27.236Z,9.90
2022-11-25T10:59:55.904Z,9.70
2022-11-25T11:02:25.702Z,9.50
2022-11-25T11:05:07.725Z,9.40
2022-11-25T11:07:38.509Z,9.20
2022-11-25T11:10:14.499Z,9.10
2022-11-25T11:12:51.655Z,9.10
2022-11-25T11:15:23.405Z,9.10
2022-11-25T11:17:50.267Z,9.10
2022-11-25T11:20:29.458Z,9.30
2022-11-25T11:23:08.807Z,9.40
2022-11-25T11:25:37.249Z,9.60
2022-11-25T11:28:23.519Z,9.70
2022-11-25T11:30:58.927Z,9.80
2022-11-25T11:33:32.695Z,9.70
2022-11-25T11:36:18.245Z,9.60
2022-11-25T11:38:47.898Z,9.60
2022-11-25T11:41:14.630Z,9.60
2022-11-25T11:43:46.672Z,9.60
2022-11-25T11:46:19.695Z,9.60
2022-11-25T11:48:53.601Z,9.70
2022-11-25T11:51:23.405Z,9.70
2022-11-25T11:54:09.068Z,9.70
2022-11-25T11:56:38.803Z,9.70
2022-11-25T11:59:14.618Z,9.70
2022-11-25T12:01:53.867Z,9.70
2022-11-25T12:04:22.697Z,9.80
2022-11-25T12:06:56.517Z,9.80
2022-11-25T12:09:24.208Z,10.00
2022-11-25T12:11:54.129Z,10.10
2022-11-25T12:14:23.690Z,10.20
2022-11-25T12:16:52.922Z,10.30
2022-11-25T12:19:38.704Z,10.30
2022-11-25T12:22:14.884Z,10.20
2022-11-25T12:24:47.574Z,10.30
2022-11-25T12:27:19.970Z,10.30
2022-11-25T12:29:56.722Z,10.30
2022-11-25T12:32:29.484Z,10.30
2022-11-25T12:35:16.487Z,10.40
2022-11-25T12:38:05.133Z,10.30
2022-11-25T12:41:04.512Z,10.20
2022-11-25T12:43:34.511Z,10.10
2022-11-25T12:46:13.063Z,10.00
2022-11-25T12:48:40.999Z,9.80
2022-11-25T12:51:16.617Z,9.70
2022-11-25T12:53:54.820Z,9.50
2022-11-25T12:56:24.545Z,9.40
2022-11-25T12:59:05.277Z,9.20
2022-11-25T13:01:41.302Z,9.10
2022-11-25T13:04:28.228Z,9.00
2022-11-25T13:07:03.855Z,8.90
2022-11-25T13:09:30.489Z,8.80
2022-11-25T13:12:04.736Z,8.80
2022-11-25T13:14:38.105Z,8.70
2022-11-25T13:17:10.110Z,8.70
2022-11-25T13:19:37.243Z,8.60
2022-11-25T13:22:23.422Z,8.50
2022-11-25T13:24:50.332Z,8.50
2022-11-25T13:27:38.266Z,8.40
2022-11-25T13:30:05.381Z,8.30
2022-11-25T13:32:33.713Z,8.30
2022-11-25T13:35:20.733Z,8.20
2022-11-25T13:37:48.082Z,8.10
2022-11-25T13:40:33.667Z,8.00
2022-11-25T13:43:00.620Z,8.00
2022-11-25T13:45:30.217Z,7.90
2022-11-25T13:48:09.072Z,7.90
2022-11-25T13:50:55.397Z,7.80
2022-11-25T13:53:33.348Z,7.80
2022-11-25T13:56:23.358Z,7.80
2022-11-25T13:59:08.356Z,7.80
2022-11-25T14:01:35.086Z,7.70
2022-11-25T14:04:04.529Z,7.60
2022-11-25T14:06:52.639Z,7.50
2022-11-25T14:09:34.138Z,7.50
2022-11-25T14:12:04.106Z,7.40
2022-11-25T14:14:53.624Z,7.30
2022-11-25T14:17:32.581Z,7.30
2022-11-25T14:20:14.575Z,7.20
2022-11-25T14:23:00.163Z,7.20
2022-11-25T14:25:53.138Z,7.10
2022-11-25T14:28:30.693Z,7.10
2022-11-25T14:31:01.652Z,7.10
2022-11-25T14:33:32.725Z,7.10
2022-11-25T14:36:03.332Z,7.10
2022-11-25T14:38:36.991Z,7.10
2022-11-25T14:41:22.185Z,7.10
2022-11-25T14:43:52.555Z,7.10
2022-11-25T14:46:21.033Z,7.10
2022-11-25T14:48:55.332Z,7.00
2022-11-25T14:51:22.635Z,7.00
2022-11-25T14:53:50.474Z,7.00
2022-11-25T14:56:22.142Z,7.00
2022-11-25T14:58:51.442Z,7.00
2022-11-25T15:01:22.797Z,6.90
2022-11-25T15:03:50.416Z,6.90
2022-11-25T15:06:20.087Z,6.90
2022-11-25T15:08:53.984Z,6.90
2022-11-25T15:11:22.298Z,6.80
2022-11-25T15:13:57.822Z,6.80
2022-11-25T15:16:38.811Z,6.80
2022-11-25T15:19:06.826Z,6.80
2022-11-25T15:21:48.341Z,6.70
2022-11-25T15:24:26.500Z,6.70
2022-11-25T15:26:54.721Z,6.70
2022-11-25T15:29:21.563Z,6.60
2022-11-25T15:31:50.239Z,6.70
2022-11-25T15:34:19.610Z,6.60
2022-11-25T15:36:51.124Z,6.60
2022-11-25T15:39:20.616Z,6.50
2022-11-25T15:41:48.179Z,6.50
2022-11-25T15:44:19.809Z,6.50
2022-11-25T15:47:05.016Z,6.50
2022-11-25T15:49:36.182Z,6.50
2022-11-25T15:52:09.251Z,6.40
2022-11-25T15:54:40.472Z,6.40
2022-11-25T15:57:23.963Z,6.40
2022-11-25T15:59:53.694Z,6.30
2022-11-25T16:02:32.685Z,6.30
2022-11-25T16:05:14.953Z,6.30
2022-11-25T16:07:54.584Z,6.30
2022-11-25T16:10:21.364Z,6.30
2022-11-25T16:13:06.876Z,6.30
2022-11-25T16:15:45.346Z,6.30
2022-11-25T16:18:32.935Z,6.20
2022-11-25T16:21:01.603Z,6.30
2022-11-25T16:23:28.465Z,6.30
2022-11-25T16:25:57.457Z,6.30
2022-11-25T16:28:24.745Z,6.30
2022-11-25T16:30:54.788Z,6.30
2022-11-25T16:33:25.675Z,6.30
2022-11-25T16:35:52.324Z,6.20
2022-11-25T16:38:19.088Z,6.20
2022-11-25T16:40:46.394Z,6.20
2022-11-25T16:43:18.932Z,6.20
2022-11-25T16:45:48.706Z,6.20
2022-11-25T16:48:17.231Z,6.10
2022-11-25T16:50:44.181Z,6.10
2022-11-25T16:53:11.035Z,6.10
2022-11-25T16:55:38.603Z,6.00
2022-11-25T16:58:08.452Z,6.00
2022-11-25T17:00:35.114Z,6.00
2022-11-25T17:03:01.986Z,6.00
2022-11-25T17:05:30.064Z,5.90
2022-11-25T17:07:56.870Z,5.90
2022-11-25T17:10:23.701Z,5.90
2022-11-25T17:12:50.575Z,5.90
2022-11-25T17:15:24.717Z,5.90
2022-11-25T17:17:51.659Z,5.90
2022-11-25T17:20:21.605Z,5.90
2022-11-25T17:22:48.375Z,5.90
2022-11-25T17:25:15.091Z,5.80
2022-11-25T17:27:42.387Z,5.80
2022-11-25T17:30:20.240Z,5.80
2022-11-25T17:32:47.490Z,5.80
2022-11-25T17:35:20.780Z,5.90
2022-11-25T17:37:47.619Z,5.90
2022-11-25T17:40:14.358Z,5.90
2022-11-25T17:42:42.192Z,5.90
2022-11-25T17:45:16.269Z,5.90
2022-11-25T17:47:43.418Z,5.90
2022-11-25T17:50:18.028Z,5.80
2022-11-25T17:52:44.993Z,5.80
2022-11-25T17:55:12.072Z,5.80
2022-11-25T17:57:38.848Z,5.80
2022-11-25T18:00:07.227Z,5.80
2022-11-25T18:02:34.156Z,5.80
2022-11-25T18:05:01.230Z,5.70
2022-11-25T18:07:28.047Z,5.70
2022-11-25T18:09:54.867Z,5.70
2022-11-25T18:12:27.783Z,5.60
2022-11-25T18:14:55.318Z,5.60
2022-11-25T18:17:22.076Z,5.50
2022-11-25T18:19:55.327Z,5.50
2022-11-25T18:22:24.060Z,5.50
2022-11-25T18:24:51.731Z,5.40
2022-11-25T18:27:28.649Z,5.30
2022-11-25T18:29:56.325Z,5.30
2022-11-25T18:32:23.668Z,5.20
2022-11-25T18:34:50.991Z,5.20
2022-11-25T18:37:17.672Z,5.20
2022-11-25T18:39:44.442Z,5.20
2022-11-25T18:42:33.661Z,5.20
2022-11-25T18:45:00.345Z,5.20
2022-11-25T18:47:27.041Z,5.10
2022-11-25T18:49:56.225Z,5.10
2022-11-25T18:52:24.085Z,5.10
2022-11-25T18:54:50.813Z,5.10
2022-11-25T18:57:17.533Z,5.10
2022-11-25T18:59:44.471Z,5.00
2022-11-25T19:02:15.859Z,5.00
2022-11-25T19:04:42.871Z,5.10
2022-11-25T19:07:09.736Z,5.10
2022-11-25T19:09:36.447Z,5.20
2022-11-25T19:12:03.459Z,5.20
2022-11-25T19:14:32.009Z,5.30
2022-11-25T19:17:03.027Z,5.30
2022-11-25T19:19:29.960Z,5.30
2022-11-25T19:21:56.660Z,5.30
2022-11-25T19:24:23.467Z,5.30
2022-11-25T19:26:51.291Z,5.30
2022-11-25T19:29:42.041Z,5.30
2022-11-25T19:32:18.289Z,5.30
2022-11-25T19:34:46.940Z,5.30
2022-11-25T19:37:20.053Z,5.30
2022-11-25T19:39:50.284Z,5.30
2022-11-25T19:42:17.219Z,5.40
2022-11-25T19:44:44.537Z,5.40
2022-11-25T19:47:19.876Z,5.40
2022-11-25T19:49:46.934Z,5.50
2022-11-25T19:52:14.950Z,5.50
2022-11-25T19:54:41.730Z,5.50
2022-11-25T19:57:27.482Z,5.50
2022-11-25T19:59:54.382Z,5.50
2022-11-25T20:02:22.750Z,5.50
2022-11-25T20:04:51.017Z,5.50
2022-11-25T20:07:18.577Z,5.50
2022-11-25T20:09:45.317Z,5.50
2022-11-25T20:12:18.053Z,5.40
2022-11-25T20:14:44.881Z,5.40
2022-11-25T20:17:13.047Z,5.30
2022-11-25T20:19:39.793Z,5.30
2022-11-25T20:22:06.537Z,5.30
2022-11-25T20:24:33.204Z,5.30
2022-11-25T20:26:59.862Z,5.20
2022-11-25T20:29:30.391Z,5.20
2022-11-25T20:31:58.508Z,5.20
2022-11-25T20:34:25.508Z,5.10
2022-11-25T20:36:52.192Z,5.10
2022-11-25T20:39:19.323Z,5.00
2022-11-25T20:41:47.577Z,5.00
2022-11-25T20:44:14.336Z,5.00
2022-11-25T20:46:40.986Z,4.90
2022-11-25T20:49:18.958Z,4.90
2022-11-25T20:51:45.681Z,4.90
2022-11-25T20:54:14.198Z,4.90
2022-11-25T20:56:41.030Z,4.80
2022-11-25T20:59:34.315Z,4.80
2022-11-25T21:02:01.113Z,4.80
2022-11-25T21:04:27.879Z,4.70
2022-11-25T21:06:54.581Z,4.70
2022-11-25T21:09:23.544Z,4.60
2022-11-25T21:11:50.576Z,4.60
2022-11-25T21:14:18.173Z,4.60
2022-11-25T21:16:45.642Z,4.50
2022-11-25T21:19:12.368Z,4.50
2022-11-25T21:21:40.184Z,4.50
2022-11-25T21:24:27.310Z,4.50
2022-11-25T21:26:54.815Z,4.50
2022-11-25T21:29:21.531Z,4.50
2022-11-25T21:31:48.372Z,4.50
2022-11-25T21:34:15.259Z,4.50
2022-11-25T21:36:42.681Z,4.50
2022-11-25T21:39:25.707Z,4.50
2022-11-25T21:41:52.835Z,4.60
2022-11-25T21:44:31.078Z,4.60
2022-11-25T21:46:57.890Z,4.60
2022-11-25T21:49:25.378Z,4.70
2022-11-25T21:51:52.147Z,4.70
2022-11-25T21:54:18.857Z,4.70
2022-11-25T21:56:45.889Z,4.60
2022-11-25T21:59:21.708Z,4.50
2022-11-25T22:01:48.452Z,4.50
2022-11-25T22:04:16.151Z,4.50
2022-11-25T22:06:42.983Z,4.50
2022-11-25T22:09:10.225Z,4.60
2022-11-25T22:11:38.753Z,4.60
2022-11-25T22:14:07.972Z,4.70
2022-11-25T22:16:35.333Z,4.70
2022-11-25T22:19:02.412Z,4.80
2022-11-25T22:21:29.081Z,4.80
2022-11-25T22:23:55.828Z,4.80
2022-11-25T22:26:30.005Z,4.80
2022-11-25T22:28:57.050Z,4.80
2022-11-25T22:31:24.393Z,4.80
2022-11-25T22:33:51.187Z,4.90
2022-11-25T22:36:37.491Z,4.90
2022-11-25T22:39:16.157Z,4.90
2022-11-25T22:42:03.523Z,5.00
2022-11-25T22:44:37.955Z,5.00
2022-11-25T22:47:05.435Z,5.00
2022-11-25T22:49:38.817Z,5.00
2022-11-25T22:52:06.104Z,5.00
2022-11-25T22:54:32.828Z,5.00
2022-11-25T22:57:00.158Z,5.00
2022-11-25T22:59:26.837Z,5.00
2022-11-25T23:01:53.638Z,5.00
2022-11-25T23:04:20.460Z,5.00
2022-11-25T23:06:47.493Z,5.10
2022-11-25T23:09:15.441Z,5.10
2022-11-25T23:11:42.129Z,5.20
2022-11-25T23:14:09.383Z,5.20
2022-11-25T23:16:36.179Z,5.20
2022-11-25T23:19:04.474Z,5.30
2022-11-25T23:21:31.714Z,5.30
2022-11-25T23:23:58.382Z,5.40
2022-11-25T23:26:28.785Z,5.40
2022-11-25T23:28:58.999Z,5.40
2022-11-25T23:31:25.809Z,5.40
2022-11-25T23:33:52.585Z,5.40
2022-11-25T23:36:23.272Z,5.50
2022-11-25T23:38:54.806Z,5.40
2022-11-25T23:41:23.413Z,5.40
2022-11-25T23:43:50.144Z,5.50
2022-11-25T23:46:18.408Z,5.60
2022-11-25T23:48:47.281Z,5.60
2022-11-25T23:51:13.997Z,5.60
2022-11-25T23:53:41.080Z,5.60
2022-11-25T23:56:08.380Z,5.60
2022-11-25T23:58:35.229Z,5.60
